Latest Weather Observations for Moorabbin Airport

IDV60901

Issued at 9:11 am EDT Wednesday 14 November 2018 (issued every 10 minutes, with the page automatically refreshed every 10 minutes)

About weather observations | Map of Melbourne area stations | Latest observations for Melbourne area | Other Formats
Station Details ID: 086077 Name: MOORABBIN AIRPORT Lat: -37.98 Lon: 145.10 Height: 12.1 m
Data from the previous 72 hours. | See also: Recent months at Moorabbin Airport
Date/Time
EDT
Temp
°C
App
Temp
°C
Dew
Point
°C
Rel
Hum
%
Delta-T
°C
Wind Press
QNH
hPa
Press
MSL
hPa
Rain since
9am
mm
Dir  Spd
km/h
Gust
km/h
Spd
kts
Gust
kts
14/09:00am 14.9 13.6 14.7 99 0.1 SSW 15 20 8 11 1014.8 1014.8 6.2
14/08:30am 15.0 13.8 15.0 100 0.0 SSW 15 19 8 10 1014.7 1014.7 6.2
14/08:00am 14.7 12.5 14.4 98 0.2 SSW 19 24 10 13 1014.3 1014.3 5.6
14/07:30am 15.2 13.5 14.7 97 0.3 SSW 17 20 9 11 1014.0 1014.0 4.2
14/07:00am 15.5 15.4 14.9 96 0.3 SSW 9 13 5 7 1013.7 1013.7 3.2
14/06:30am 15.6 15.1 14.8 95 0.5 SW 11 17 6 9 1013.5 1013.5 2.6
14/06:00am 15.6 15.5 15.0 96 0.3 SSW 9 11 5 6 1013.1 1013.1 2.6
14/05:30am 15.6 15.5 15.0 96 0.3 SSW 9 13 5 7 1012.7 1012.7 2.6
14/05:00am 15.6 15.5 15.0 96 0.3 SSW 9 11 5 6 1012.5 1012.5 2.6
14/04:56am 15.6 15.5 15.0 96 0.3 SSW 9 11 5 6 1012.5 1012.5 2.6
14/04:39am 15.4 15.8 14.8 96 0.3 SSW 6 9 3 5 1012.4 1012.4 2.6
14/04:30am 15.5 15.8 14.9 96 0.3 SSW 7 7 4 4 1012.4 1012.4 2.6
14/04:00am 15.4 15.8 14.8 96 0.3 SSW 6 7 3 4 1012.4 1012.4 2.6
14/03:30am 15.3 15.1 14.7 96 0.3 SSW 9 13 5 7 1012.2 1012.2 2.6
14/03:00am 15.6 16.0 14.8 95 0.5 WSW 6 9 3 5 1012.5 1012.5 2.4
14/02:30am 15.5 15.3 14.7 95 0.5 WSW 9 11 5 6 1012.6 1012.6 1.8
14/02:00am 15.5 15.2 14.5 94 0.6 WSW 9 15 5 8 1012.6 1012.6 1.0
14/01:30am 15.7 15.4 14.4 92 0.7 SW 9 13 5 7 1012.7 1012.7 0.2
14/01:00am 15.8 15.1 14.3 91 0.9 SW 11 15 6 8 1012.8 1012.8 0.0
14/12:30am 16.0 14.5 14.2 89 1.0 SW 15 20 8 11 1012.9 1012.9 0.0
14/12:00am 16.3 15.6 14.3 88 1.1 SW 11 15 6 8 1012.7 1012.7 0.0
 
Date/Time
EDT
Temp
°C
App
Temp
°C
Dew
Point
°C
Rel
Hum
%
Delta-T
°C
Wind Press
QNH
hPa
Press
MSL
hPa
Rain since
9am
mm
Dir  Spd
km/h
Gust
km/h
Spd
kts
Gust
kts
13/11:57pm 16.3 15.5 14.1 87 1.2 SSW 11 15 6 8 1012.7 1012.7 0.0
13/11:31pm 16.6 15.5 14.2 86 1.4 SW 13 19 7 10 1012.7 1012.7 0.0
13/11:30pm 16.6 15.5 14.2 86 1.4 SW 13 19 7 10 1012.7 1012.7 0.0
13/11:05pm 16.8 15.3 14.3 85 1.4 WSW 15 19 8 10 1012.7 1012.7 0.0
13/11:00pm 16.8 15.3 14.3 85 1.4 WSW 15 20 8 11 1012.7 1012.7 0.0
13/10:30pm 17.3 16.9 14.2 82 1.8 SW 9 15 5 8 1012.6 1012.6 0.0
13/10:00pm 17.5 17.1 14.0 80 2.0 SW 9 13 5 7 1012.2 1012.2 0.0
13/09:30pm 17.6 16.4 13.9 79 2.1 SW 13 17 7 9 1011.8 1011.8 0.0
13/09:00pm 17.9 15.6 14.0 78 2.2 SSW 19 32 10 17 1011.4 1011.4 0.0
13/08:30pm 18.1 15.8 14.6 80 2.0 SW 20 30 11 16 1011.0 1011.0 0.0
13/08:00pm 18.1 15.6 14.2 78 2.2 SW 20 30 11 16 1010.2 1010.2 0.0
13/07:30pm 20.1 17.2 12.8 63 4.1 WSW 20 39 11 21 1009.1 1009.1 0.0
13/07:26pm 21.9 18.0 12.2 54 5.5 NW 24 41 13 22 1008.9 1008.9 0.0
13/07:22pm 27.2 21.5 11.3 37 9.1 N 32 50 17 27 1008.3 1008.3 0.0
13/07:00pm 27.4 21.1 11.0 36 9.3 N 35 48 19 26 1006.8 1006.8 0.0
13/06:58pm 27.4 21.1 11.0 36 9.3 N 35 54 19 29 1006.8 1006.8 0.0
13/06:30pm 27.9 20.8 11.0 35 9.6 NNE 39 56 21 30 1006.5 1006.5 0.0
13/06:00pm 28.6 20.9 10.3 32 10.4 N 41 54 22 29 1006.4 1006.4 0.0
13/05:30pm 29.3 21.2 9.9 30 10.9 N 43 59 23 32 1006.4 1006.4 0.0
13/05:00pm 29.6 21.0 10.2 30 11.0 N 46 61 25 33 1006.4 1006.4 0.0
13/04:55pm 30.0 21.9 10.0 29 11.3 N 43 61 23 33 1006.4 1006.4 0.0
13/04:30pm 30.1 21.6 10.6 30 11.1 N 46 61 25 33 1006.4 1006.4 0.0
13/04:17pm 30.8 23.1 10.2 28 11.7 N 41 59 22 32 1006.6 1006.6 0.0
13/04:00pm 30.4 22.3 10.9 30 11.2 N 44 56 24 30 1006.7 1006.7 0.0
13/03:36pm 31.7 24.5 12.0 30 11.6 N 41 59 22 32 1006.9 1006.9 0.0
13/03:30pm 31.1 23.1 10.4 28 11.8 N 43 59 23 32 1006.9 1006.9 0.0
13/03:20pm 30.4 22.9 9.3 27 11.8 N 39 59 21 32 1006.8 1006.8 0.0
13/03:00pm 30.7 22.7 10.6 29 11.5 N 43 59 23 32 1006.9 1006.9 0.0
13/02:30pm 30.5 22.6 11.5 31 11.0 N 44 63 24 34 1007.3 1007.3 0.0
13/02:15pm 30.4 22.4 10.4 29 11.4 N 43 61 23 33 1007.6 1007.6 0.0
13/02:00pm 30.3 22.5 9.8 28 11.6 N 41 52 22 28 1007.6 1007.6 0.0
13/01:30pm 29.8 22.4 9.9 29 11.2 N 39 54 21 29 1008.0 1008.0 0.0
13/01:09pm 30.5 22.6 9.4 27 11.8 N 41 65 22 35 1007.8 1007.8 0.0
13/01:00pm 29.7 22.2 9.3 28 11.4 N 39 54 21 29 1008.1 1008.1 0.0
13/12:30pm 29.4 22.5 9.0 28 11.3 N 35 46 19 25 1008.4 1008.4 0.0
13/12:25pm 30.3 24.0 9.8 28 11.6 N 33 52 18 28 1008.5 1008.5 0.0
13/12:00pm 28.8 21.9 9.0 29 11.0 N 35 52 19 28 1008.6 1008.6 0.0
13/11:30am 28.2 21.7 9.0 30 10.6 N 33 46 18 25 1009.1 1009.1 0.0
13/11:21am 28.4 22.5 9.2 30 10.6 NNE 30 43 16 23 1009.2 1009.2 0.0
13/11:00am 26.4 22.7 9.3 34 9.4 NE 19 24 10 13 1009.5 1009.5 0.0
13/10:30am 24.9 23.0 10.4 40 8.0 ENE 11 15 6 8 1010.1 1010.1 0.0
13/10:00am 23.9 22.7 10.2 42 7.5 NNE 7 13 4 7 1010.7 1010.7 0.0
13/09:30am 23.5 22.6 11.2 46 6.9 NE 7 13 4 7 1010.9 1010.9 0.0
13/09:00am 22.6 22.8 10.7 47 6.6 CALM 0 0 0 0 1011.4 1011.4 0.0
13/08:30am 21.9 21.2 11.3 51 5.9 NNW 6 9 3 5 1011.4 1011.4 0.0
13/08:00am 21.0 20.3 11.3 54 5.4 SE 6 11 3 6 1011.2 1011.2 0.0
13/07:30am 21.8 20.4 9.0 44 6.8 WNW 6 11 3 6 1011.5 1011.5 0.0
13/07:00am 20.9 17.4 10.1 50 5.8 SW 19 35 10 19 1011.1 1011.1 0.0
13/06:30am 22.8 20.2 6.1 34 8.5 N 9 17 5 9 1010.2 1010.2 0.0
13/06:00am 23.1 19.7 6.0 33 8.7 N 13 20 7 11 1010.1 1010.1 0.0
13/05:30am 21.8 18.6 6.9 38 7.6 NNE 13 19 7 10 1009.7 1009.7 0.0
13/05:00am 19.9 18.1 7.9 46 6.2 N 7 11 4 6 1009.7 1009.7 0.0
13/04:30am 18.7 17.3 8.7 52 5.2 ESE 6 7 3 4 1009.8 1009.8 0.0
13/04:00am 18.3 16.9 9.6 57 4.6 SE 7 9 4 5 1009.9 1009.9 0.0
13/03:30am 19.1 17.2 6.6 44 6.3 NNE 6 9 3 5 1010.0 1010.0 0.0
13/03:00am 20.8 17.4 6.0 38 7.4 NNE 13 19 7 10 1010.2 1010.2 0.0
13/02:30am 21.9 18.6 6.6 37 7.8 NNE 13 19 7 10 1010.4 1010.4 0.0
13/02:00am 19.2 17.8 8.8 51 5.4 SSE 6 7 3 4 1010.9 1010.9 0.0
13/01:30am 20.5 19.0 8.5 46 6.3 E 6 9 3 5 1011.2 1011.2 0.0
13/01:00am 20.7 18.7 8.7 46 6.3 ESE 9 11 5 6 1011.6 1011.6 0.0
13/12:30am 19.8 17.8 10.0 53 5.3 E 11 11 6 6 1011.9 1011.9 0.0
13/12:00am 20.5 18.9 10.3 52 5.5 ESE 9 11 5 6 1012.2 1012.2 0.0
 
Date/Time
EDT
Temp
°C
App
Temp
°C
Dew
Point
°C
Rel
Hum
%
Delta-T
°C
Wind Press
QNH
hPa
Press
MSL
hPa
Rain since
9am
mm
Dir  Spd
km/h
Gust
km/h
Spd
kts
Gust
kts
12/11:30pm 20.6 19.0 10.1 51 5.7 SE 9 13 5 7 1012.4 1012.4 0.0
12/11:00pm 22.5 20.7 9.6 44 7.0 ENE 9 13 5 7 1012.9 1012.9 0.0
12/10:30pm 22.9 20.8 9.7 43 7.2 NE 11 13 6 7 1013.3 1013.3 0.0
12/10:00pm 23.3 20.8 9.7 42 7.4 NE 13 13 7 7 1013.5 1013.5 0.0
12/09:30pm 23.4 21.3 9.8 42 7.4 ENE 11 15 6 8 1013.4 1013.4 0.0
12/09:00pm 24.4 22.0 9.9 40 8.0 ENE 13 15 7 8 1013.6 1013.6 0.0
12/08:30pm 24.6 22.6 10.1 40 8.0 ENE 11 13 6 7 1013.7 1013.7 0.0
12/08:00pm 25.7 23.1 9.5 36 8.9 ENE 13 15 7 8 1013.7 1013.7 0.0
12/07:30pm 26.9 24.2 8.8 32 9.9 NE 13 17 7 9 1013.6 1013.6 0.0
12/07:00pm 27.6 24.4 8.5 30 10.4 NE 15 19 8 10 1013.5 1013.5 0.0
12/06:30pm 28.3 23.9 7.5 27 11.2 NE 20 28 11 15 1013.6 1013.6 0.0
12/06:00pm 28.5 24.7 7.7 27 11.2 NE 17 24 9 13 1013.6 1013.6 0.0
12/05:30pm 28.9 25.3 6.9 25 11.7 NE 15 20 8 11 1013.7 1013.7 0.0
12/05:00pm 29.0 25.8 5.1 22 12.4 N 11 17 6 9 1013.9 1013.9 0.0
12/04:30pm 29.3 25.8 5.4 22 12.5 NNE 13 20 7 11 1014.1 1014.1 0.0
12/04:00pm 29.2 25.1 6.0 23 12.2 N 17 26 9 14 1014.6 1014.6 0.0
12/03:30pm 29.3 24.5 5.4 22 12.5 N 20 28 11 15 1014.9 1014.9 0.0
12/03:00pm 29.2 25.3 7.2 25 11.8 N 17 26 9 14 1015.3 1015.3 0.0
12/02:30pm 28.4 24.0 6.5 25 11.6 N 19 24 10 13 1015.6 1015.6 0.0
12/02:00pm 28.4 23.0 4.6 22 12.2 N 22 33 12 18 1016.0 1016.0 0.0
12/01:30pm 27.9 21.8 2.9 20 12.4 NNW 24 33 13 18 1016.4 1016.4 0.0
12/01:00pm 28.3 22.7 3.2 20 12.5 NNW 22 32 12 17 1016.6 1016.6 0.0
12/12:30pm 27.4 23.2 8.3 30 10.4 N 20 28 11 15 1016.9 1016.9 0.0
12/12:00pm 26.3 24.3 8.8 33 9.5 N 9 13 5 7 1017.0 1017.0 0.0
12/11:30am 26.2 23.1 8.7 33 9.5 N 15 20 8 11 1017.3 1017.3 0.0
12/11:00am 25.0 24.4 12.2 44 7.3 NE 7 9 4 5 1017.6 1017.6 0.0
12/10:30am 23.0 22.4 12.3 51 6.1 ESE 7 11 4 6 1017.8 1017.8 0.0
12/10:00am 20.8 20.3 12.5 59 4.7 E 7 11 4 6 1018.2 1018.2 0.0
12/09:30am 19.0 17.9 11.8 63 4.0 ENE 9 11 5 6 1018.5 1018.5 0.0
12/09:00am 17.4 16.6 11.7 69 3.1 ENE 7 11 4 6 1018.7 1018.7 0.0
12/08:30am 15.7 15.0 11.5 76 2.3 NE 6 9 3 5 1018.8 1018.8 0.0
12/08:00am 14.3 13.4 11.3 82 1.6 ENE 7 9 4 5 1018.6 1018.6 0.0
12/07:30am 12.7 12.2 10.9 89 0.9 NNE 4 7 2 4 1018.8 1018.8 0.0
12/07:00am 11.1 11.1 9.9 92 0.6 CALM 0 0 0 0 1018.7 1018.7 0.0
12/06:30am 9.7 8.6 8.5 92 0.6 ESE 4 6 2 3 1018.8 1018.8 0.0
12/06:00am 9.1 7.4 7.5 90 0.8 ENE 6 6 3 3 1018.5 1018.5 0.0
12/05:30am 9.6 9.1 8.0 90 0.8 CALM 0 0 0 0 1018.5 1018.5 0.0
12/05:00am 9.8 9.4 8.2 90 0.8 CALM 0 0 0 0 1018.5 1018.5 0.0
12/04:30am 9.7 9.2 8.0 89 0.8 CALM 0 0 0 0 1018.4 1018.4 0.0
12/04:00am 9.7 8.1 7.8 88 0.9 E 6 7 3 4 1018.7 1018.7 0.0
12/03:30am 9.6 9.0 7.5 87 1.0 CALM 0 0 0 0 1018.9 1018.9 0.0
12/03:00am 10.1 9.6 8.0 87 1.0 CALM 0 0 0 0 1019.1 1019.1 0.0
12/02:30am 10.8 10.5 8.6 86 1.1 CALM 0 0 0 0 1019.3 1019.3 0.0
12/02:00am 10.7 10.3 8.3 85 1.2 CALM 0 0 0 0 1019.5 1019.5 0.0
12/01:30am 11.0 10.2 8.2 83 1.4 NNE 2 7 1 4 1019.6 1019.6 0.0
12/01:00am 11.9 10.3 8.7 81 1.6 NE 7 9 4 5 1019.8 1019.8 0.0
12/12:30am 11.8 10.3 8.6 81 1.6 N 6 7 3 4 1020.2 1020.2 0.0
12/12:00am 12.2 10.7 9.2 82 1.5 ESE 7 9 4 5 1020.1 1020.1 0.0
 
Date/Time
EDT
Temp
°C
App
Temp
°C
Dew
Point
°C
Rel
Hum
%
Delta-T
°C
Wind Press
QNH
hPa
Press
MSL
hPa
Rain since
9am
mm
Dir  Spd
km/h
Gust
km/h
Spd
kts
Gust
kts
11/11:30pm 12.6 10.8 9.6 82 1.5 SSE 9 13 5 7 1020.4 1020.4 0.0
11/11:00pm 12.7 10.9 9.5 81 1.6 SE 9 13 5 7 1020.6 1020.6 0.0
11/10:30pm 12.9 11.1 9.4 79 1.8 SE 9 15 5 8 1020.7 1020.7 0.0
11/10:00pm 13.3 11.5 9.4 77 2.0 SSE 9 13 5 7 1020.9 1020.9 0.0
11/09:30pm 13.8 11.2 9.3 74 2.3 SSE 13 17 7 9 1020.8 1020.8 0.0
11/09:00pm 14.3 10.9 9.1 71 2.6 SSE 17 20 9 11 1020.7 1020.7 0.0
11/08:30pm 14.8 11.0 9.2 69 2.9 SE 19 24 10 13 1020.5 1020.5 0.0
11/08:00pm 15.6 11.7 9.3 66 3.2 SE 20 26 11 14 1020.3 1020.3 0.0
11/07:30pm 16.3 12.4 9.3 63 3.6 SE 20 28 11 15 1020.1 1020.1 0.0
11/07:00pm 17.6 13.5 10.0 61 4.0 SSE 22 30 12 16 1019.9 1019.9 0.0
11/06:30pm 18.0 13.4 9.6 58 4.4 SE 24 32 13 17 1019.8 1019.8 0.0
11/06:00pm 18.7 14.1 9.5 55 4.8 SSE 24 33 13 18 1019.8 1019.8 0.0
11/05:30pm 19.6 15.0 9.5 52 5.4 SE 24 30 13 16 1019.7 1019.7 0.0
11/05:00pm 20.0 16.2 9.9 52 5.4 SSW 20 32 11 17 1019.6 1019.6 0.0
11/04:30pm 19.0 14.9 11.3 61 4.2 SW 24 30 13 16 1019.8 1019.8 0.0
11/04:00pm 18.4 13.4 10.8 61 4.1 SW 28 37 15 20 1020.1 1020.1 0.0
11/03:30pm 18.2 13.1 10.6 61 4.1 SW 28 33 15 18 1020.3 1020.3 0.0
11/03:00pm 18.6 14.2 10.4 59 4.4 SW 24 30 13 16 1020.5 1020.5 0.0
11/02:30pm 18.2 13.6 9.8 58 4.4 SSW 24 30 13 16 1020.7 1020.7 0.0
11/02:00pm 17.9 13.6 9.3 57 4.5 SSW 22 28 12 15 1020.9 1020.9 0.0
11/01:30pm 18.2 13.6 9.5 57 4.6 SW 24 30 13 16 1021.0 1021.0 0.0
11/01:00pm 18.2 14.3 9.5 57 4.6 SW 20 30 11 16 1021.5 1021.5 0.0
11/12:30pm 18.1 13.9 9.7 58 4.4 SW 22 28 12 15 1021.6 1021.6 0.0
11/12:00pm 17.4 13.0 7.5 52 5.0 SW 20 28 11 15 1021.8 1021.8 0.0
11/11:30am 17.0 12.8 8.2 56 4.5 SSW 20 28 11 15 1022.1 1022.1 0.0
11/11:00am 17.3 13.1 8.4 56 4.5 SSW 20 28 11 15 1022.2 1022.2 0.0
11/10:30am 16.8 13.5 6.3 50 5.1 SE 13 20 7 11 1022.1 1022.1 0.0
11/10:00am 17.0 13.9 7.1 52 4.9 SE 13 20 7 11 1022.0 1022.0 0.0
11/09:30am 16.2 12.6 6.6 53 4.7 SE 15 20 8 11 1022.0 1022.0 0.0

Latest Capital City Observations: Canberra | Sydney | Melbourne | Brisbane | Adelaide | Perth | Hobart | Darwin

Other Formats:

Comma delimited format used in spreadsheet applications
http://www.bom.gov.au/fwo/IDV60901/IDV60901.94870.axf

JavaScript Object Notation format (JSON) in row-major order
http://www.bom.gov.au/fwo/IDV60901/IDV60901.94870.json